Tuesday, November 25, 2014
20:42 UTC
  |  Log In   |  Register Free
Airport Search:

Firelands Community Hospital Nr 2 Airport
(OI87)

Firelands Community Hospital Nr 2 Airport Diagram
No Airport Diagram Available

FAA data valid effective November 13, 2014 - January 08, 2015 (unless otherwise noted).

 
 
 
 
 
 
 
 
 
 
 
 
 
 

Current Aviation Weather for Firelands Community Hospital Nr 2 Airport (OI87)

METAR data is unavailable for OI87. The nearest METAR location is at KPCW (8.3 nm NW from OI87).

The most recent METAR observation for KPCW was updated at: 2019
METAR Summary (Translated METAR)
KPCW
252013Z AUTO 23014KT 180V250 10SM BKN024 BKN029 OVC039 01/M03 A3009
(8.3 nm NW from OI87)
KLPR
251953Z AUTO 27014KT 10SM OVC022 01/M03 A3008 RMK AO2 SLP192 T00111028 TSNO
(24.8 nm SE from OI87)
TAF
No TAF information found within 50 nm of KLPR
  Airport Weather Conditions for OI87

Current weather conditions are
not available for OI87


The nearest NOAA weather station
is at PCW, (8.3 nm NW from OI87)
  
 Current Weather at PCW
36° F
Overcast
Southwest winds at 12.7 mph
PCW NOAA Radar

Pressure: 30.09 in
Humidity: 70%
Wind: Southwest at 12.7 MPH (11 KT)
Dew Point: 26.6°F
Visibility: 10.00 mi


Airport Weather Forecast for OI87

Translated METAR and TAF for KLPR
Translated METAR for KLPR (2037 UTC 25 November 2014)
found at http://aviationweather.gov/adds/metars/
 
METAR text: KLPR 251953Z AUTO 27014KT 10SM OVC022 01/M03 A3008 RMK AO2 SLP192 T00111028 TSNO
Conditions at: KLPR (LORAIN/ELYRIA , OH, US) observed 1953 UTC 25 November 2014
Temperature: 1.1°C (34°F)
Dewpoint: -2.8°C (27°F) [RH = 75%]
Pressure (altimeter): 30.08 inches Hg (1018.7 mb)
[Sea-level pressure: 1019.2 mb]
Winds: from the W (270 degrees) at 16 MPH (14 knots; 7.3 m/s)
Visibility: 10 or more miles (16+ km)
Ceiling: 2200 feet AGL
Clouds: overcast cloud deck at 2200 feet AGL
Weather: automated observation with no human augmentation;
there may or may not be significant weather present at this time
Translated TAF for KLPR

There is no translated TAF available for this airport

Find All Airport Services Find A Hotel Find A Rental Car Find A Golf Course Find A Restaurant $100 Hamburger



FBO's on the Field
FBO Company Facility Photos Services Transportation Aviation Fuel Prices: Prices include tax
Catering Weather Repair Courtesy Rental Type 100LL JetA JetA+ MOGAS 8087
 
Add another FBO Facility Photos Catering Weather Repair Courtesy Rental Type 100LL JetA JetA+ MOGAS 8087
Services Transportation Aviation Fuel Prices: Prices include tax
There are no FBO's currently reporting fuel at OI87. List your FBO now


model-print
model-print
model-print
model-print